Spencer, Iowa
Current Conditions -  °F | °C
As of 3:53 PM on Monday 26 Jan 2015 (Local Time) from KSPW Reporting Station
Clear Clear  
Wind Chill:   Ceiling: Unl
Heat Index:   Visibility: 10mi
Dew Point:   Wind: 16mph
Humidity: 68%   Direction: 310°NW
Pressure: 29.87"   Gusts: 25mph
Location:  43.14°N, 95.14°W
Report Text: KSPW 262153Z AUTO 31014G22KT 10SM CLR 08/03 A2987 RMK AO2 PK WND 31027/2134 SLP124 T00830028 TSNO
Loading
Personal Weather Stations






























Interactive Weather Map New forecast layout! Learn more

10-Day Weather Forecast

Advertisements
Track Severe Weather on mobile